Time;durP1;ratioP1;P1;durP2;ratioP2;P2;SDS_P1;SDS_P2;PMS_P1;PMS_P2;Temp;Humidity;BMP_temperature;BMP_pressure;BME280_temperature;BME280_humidity;BME280_pressure;Samples;Min_cycle;Max_cycle;Signal;HPM_P1;HPM_P2
2022/03/02 00:02:06;;;;;;;18.23;13.57;;;;;;;;;;5032216;28;20520;-58
2022/03/02 00:04:32;;;;;;;19.37;13.83;;;;;;;;;;5032430;28;20208;-60
2022/03/02 00:06:58;;;;;;;18.73;14.20;;;;;;;;;;5032599;28;20443;-57
2022/03/02 00:09:24;;;;;;;16.90;13.00;;;;;;;;;;5032380;28;20439;-57
2022/03/02 00:11:50;;;;;;;18.40;14.33;;;;;;;;;;5032154;28;20250;-58
2022/03/02 00:14:18;;;;;;;16.10;12.67;;;;;;;;;;5032043;28;20439;-58
2022/03/02 00:16:44;;;;;;;18.60;12.20;;;;;;;;;;5032078;28;20229;-58
2022/03/02 00:19:10;;;;;;;16.97;12.80;;;;;;;;;;5031941;28;20443;-57
2022/03/02 00:21:36;;;;;;;15.73;12.20;;;;;;;;;;5032133;28;20201;-57
2022/03/02 00:24:04;;;;;;;18.73;12.30;;;;;;;;;;5031928;28;20252;-58
2022/03/02 00:26:30;;;;;;;16.10;11.30;;;;;;;;;;5032221;28;20499;-57
2022/03/02 00:28:56;;;;;;;16.47;11.40;;;;;;;;;;5032066;28;20440;-59
2022/03/02 00:31:23;;;;;;;16.53;11.43;;;;;;;;;;5031993;28;20451;-59
2022/03/02 00:33:49;;;;;;;15.87;11.40;;;;;;;;;;5031981;28;20211;-59
2022/03/02 00:36:15;;;;;;;16.40;12.47;;;;;;;;;;5032054;28;20511;-59
2022/03/02 00:38:41;;;;;;;15.43;11.50;;;;;;;;;;5031974;28;20454;-59
2022/03/02 00:41:07;;;;;;;15.13;11.77;;;;;;;;;;5031868;28;20451;-59
2022/03/02 00:43:33;;;;;;;15.07;11.37;;;;;;;;;;5031844;28;20615;-59
2022/03/02 00:45:59;;;;;;;16.33;11.90;;;;;;;;;;5032031;28;20463;-59
2022/03/02 00:48:27;;;;;;;15.37;11.13;;;;;;;;;;5031757;28;20487;-59
2022/03/02 00:50:54;;;;;;;14.53;11.57;;;;;;;;;;5031784;28;20236;-59
2022/03/02 00:53:20;;;;;;;16.67;11.50;;;;;;;;;;5031523;28;20435;-59
2022/03/02 00:55:46;;;;;;;13.47;11.20;;;;;;;;;;5031690;28;20444;-59
2022/03/02 00:58:12;;;;;;;14.40;11.67;;;;;;;;;;5031602;28;20548;-59
2022/03/02 01:00:38;;;;;;;15.77;11.70;;;;;;;;;;5031685;28;20552;-59
2022/03/02 01:03:05;;;;;;;16.23;11.33;;;;;;;;;;5031458;28;20436;-59
2022/03/02 01:05:32;;;;;;;13.73;11.13;;;;;;;;;;5031840;28;20454;-59
2022/03/02 01:07:58;;;;;;;14.23;11.63;;;;;;;;;;5031642;28;20436;-59
2022/03/02 01:10:24;;;;;;;15.93;11.07;;;;;;;;;;5031614;28;20812;-59
2022/03/02 01:12:50;;;;;;;14.47;11.57;;;;;;;;;;5029968;28;20239;-59
2022/03/02 01:15:16;;;;;;;15.73;11.63;;;;;;;;;;5031334;28;20658;-59
2022/03/02 01:17:43;;;;;;;16.37;12.63;;;;;;;;;;5031713;28;20487;-58
2022/03/02 01:20:10;;;;;;;15.53;12.20;;;;;;;;;;5031427;28;20217;-59
2022/03/02 01:22:37;;;;;;;16.80;12.57;;;;;;;;;;5031076;28;20796;-59
2022/03/02 01:25:03;;;;;;;18.33;13.03;;;;;;;;;;5031006;28;20482;-59
2022/03/02 01:27:29;;;;;;;16.63;13.30;;;;;;;;;;5031509;28;20804;-59
2022/03/02 01:29:56;;;;;;;17.27;13.20;;;;;;;;;;5031266;28;20428;-59
2022/03/02 01:32:22;;;;;;;16.57;12.77;;;;;;;;;;5031310;28;20270;-59
2022/03/02 01:34:48;;;;;;;15.50;11.77;;;;;;;;;;5031429;28;20463;-59
2022/03/02 01:37:15;;;;;;;16.40;12.53;;;;;;;;;;5031336;28;20472;-59
2022/03/02 01:39:42;;;;;;;16.53;13.37;;;;;;;;;;5031379;28;20436;-59
2022/03/02 01:42:08;;;;;;;17.47;12.47;;;;;;;;;;5031248;28;20456;-59
2022/03/02 01:44:34;;;;;;;17.10;13.50;;;;;;;;;;5031259;28;20438;-59
2022/03/02 01:47:00;;;;;;;16.37;12.80;;;;;;;;;;5031407;28;20724;-58
2022/03/02 01:49:26;;;;;;;15.70;12.57;;;;;;;;;;5031254;28;20452;-59
2022/03/02 01:51:52;;;;;;;18.73;12.13;;;;;;;;;;5031238;28;20615;-59
2022/03/02 01:54:19;;;;;;;15.23;12.63;;;;;;;;;;5031072;28;20201;-59
2022/03/02 01:56:48;;;;;;;14.17;11.23;;;;;;;;;;5031352;28;20506;-59
2022/03/02 01:59:14;;;;;;;15.30;11.70;;;;;;;;;;5031143;28;20454;-59
2022/03/02 02:01:40;;;;;;;16.23;11.53;;;;;;;;;;5031066;28;20526;-59
2022/03/02 02:04:06;;;;;;;15.80;11.80;;;;;;;;;;5030952;28;20667;-59
2022/03/02 02:06:32;;;;;;;14.90;11.83;;;;;;;;;;5031109;28;21013;-59
2022/03/02 02:08:58;;;;;;;16.00;11.67;;;;;;;;;;5031174;28;20446;-59
2022/03/02 02:11:25;;;;;;;17.70;12.13;;;;;;;;;;5030894;28;20458;-59
2022/03/02 02:13:52;;;;;;;16.03;11.63;;;;;;;;;;5031038;28;20436;-59
2022/03/02 02:16:20;;;;;;;17.00;11.97;;;;;;;;;;5030787;28;20479;-59
2022/03/02 02:18:46;;;;;;;14.83;11.23;;;;;;;;;;5031139;28;20459;-59
2022/03/02 02:21:13;;;;;;;20.17;11.90;;;;;;;;;;5031265;28;20447;-56
2022/03/02 02:23:40;;;;;;;15.57;12.27;;;;;;;;;;5033450;28;20463;-56
2022/03/02 02:26:07;;;;;;;16.83;11.53;;;;;;;;;;5034226;28;20464;-56
2022/03/02 02:28:34;;;;;;;16.37;11.53;;;;;;;;;;5034327;28;20467;-56
2022/03/02 02:31:01;;;;;;;13.27;11.57;;;;;;;;;;5034442;28;20463;-56
2022/03/02 02:33:27;;;;;;;18.07;11.33;;;;;;;;;;5034269;28;20861;-59
2022/03/02 02:35:53;;;;;;;15.23;11.70;;;;;;;;;;5034240;28;20498;-59
2022/03/02 02:38:21;;;;;;;14.37;11.30;;;;;;;;;;5034202;28;20522;-57
2022/03/02 02:40:48;;;;;;;15.63;11.70;;;;;;;;;;5034405;28;20455;-56
2022/03/02 02:43:15;;;;;;;15.80;11.70;;;;;;;;;;5034231;28;20430;-56
2022/03/02 02:45:41;;;;;;;17.33;12.03;;;;;;;;;;5034241;28;20872;-56
2022/03/02 02:48:07;;;;;;;16.23;12.10;;;;;;;;;;5033984;28;20467;-56
2022/03/02 02:50:33;;;;;;;15.63;11.80;;;;;;;;;;5034103;28;20287;-56
2022/03/02 02:53:00;;;;;;;14.10;11.33;;;;;;;;;;5034180;28;20470;-56
2022/03/02 02:55:28;;;;;;;14.83;11.60;;;;;;;;;;5032263;28;20523;-56
2022/03/02 02:57:55;;;;;;;16.00;11.67;;;;;;;;;;5032116;28;20480;-56
2022/03/02 03:00:22;;;;;;;14.80;11.20;;;;;;;;;;5033888;28;20517;-56
2022/03/02 03:02:49;;;;;;;16.53;12.03;;;;;;;;;;5033861;28;20490;-59
2022/03/02 03:05:16;;;;;;;16.53;11.63;;;;;;;;;;5033835;28;20444;-59
2022/03/02 03:07:42;;;;;;;13.77;11.40;;;;;;;;;;5033859;28;20428;-59
2022/03/02 03:10:09;;;;;;;15.23;11.33;;;;;;;;;;5033612;28;20439;-59
2022/03/02 03:12:36;;;;;;;15.00;11.77;;;;;;;;;;5033710;28;20530;-59
2022/03/02 03:15:04;;;;;;;13.20;11.17;;;;;;;;;;5033553;28;20447;-59
2022/03/02 03:17:30;;;;;;;16.33;11.57;;;;;;;;;;5033600;28;20567;-59
2022/03/02 03:19:56;;;;;;;13.17;11.13;;;;;;;;;;5033444;28;20424;-59
2022/03/02 03:22:22;;;;;;;14.40;11.83;;;;;;;;;;5033515;28;20447;-59
2022/03/02 03:24:48;;;;;;;14.73;11.37;;;;;;;;;;5033088;28;20452;-58
2022/03/02 03:27:14;;;;;;;15.60;11.50;;;;;;;;;;5033356;28;20264;-59
2022/03/02 03:29:42;;;;;;;13.17;11.20;;;;;;;;;;5033341;28;20435;-58
2022/03/02 03:32:08;;;;;;;17.23;12.13;;;;;;;;;;5033255;28;20811;-58
2022/03/02 03:34:34;;;;;;;13.83;11.13;;;;;;;;;;5033106;28;20427;-58
2022/03/02 03:37:00;;;;;;;15.10;11.00;;;;;;;;;;5033051;28;20482;-58
2022/03/02 03:39:27;;;;;;;15.10;10.90;;;;;;;;;;5033185;28;20519;-58
2022/03/02 03:41:55;;;;;;;14.03;10.27;;;;;;;;;;5033096;28;20189;-58
2022/03/02 03:44:21;;;;;;;13.80;10.47;;;;;;;;;;5032905;28;20452;-58
2022/03/02 03:46:48;;;;;;;12.87;11.30;;;;;;;;;;5033121;28;20797;-58
2022/03/02 03:49:14;;;;;;;12.93;10.70;;;;;;;;;;5033016;28;20444;-58
2022/03/02 03:51:40;;;;;;;14.70;10.67;;;;;;;;;;5033026;28;20526;-58
2022/03/02 03:54:08;;;;;;;15.20;10.80;;;;;;;;;;5032736;28;20515;-58
2022/03/02 03:56:34;;;;;;;12.83;10.70;;;;;;;;;;5032867;28;20316;-59
2022/03/02 03:59:00;;;;;;;14.83;10.60;;;;;;;;;;5032767;28;20443;-58
2022/03/02 04:01:26;;;;;;;14.57;11.17;;;;;;;;;;5032791;28;20428;-58
2022/03/02 04:03:53;;;;;;;13.03;10.93;;;;;;;;;;5032730;28;20968;-58
2022/03/02 04:06:19;;;;;;;12.93;10.23;;;;;;;;;;5032461;28;20197;-59
2022/03/02 04:08:45;;;;;;;14.13;10.30;;;;;;;;;;5032744;28;20947;-59
2022/03/02 04:11:11;;;;;;;14.10;11.00;;;;;;;;;;5032534;28;20251;-58
2022/03/02 04:13:37;;;;;;;12.67;10.13;;;;;;;;;;5030846;28;20197;-58
2022/03/02 04:16:03;;;;;;;12.57;9.63;;;;;;;;;;5030501;28;20442;-58
2022/03/02 04:18:31;;;;;;;13.60;11.13;;;;;;;;;;5032536;28;20196;-58
2022/03/02 04:20:59;;;;;;;16.53;10.13;;;;;;;;;;5032392;28;20443;-58
2022/03/02 04:23:25;;;;;;;14.07;10.37;;;;;;;;;;5031967;28;20467;-58
2022/03/02 04:25:51;;;;;;;13.03;10.30;;;;;;;;;;5032078;28;20464;-58
2022/03/02 04:28:18;;;;;;;14.13;10.37;;;;;;;;;;5032045;28;20432;-58
2022/03/02 04:30:44;;;;;;;15.10;11.03;;;;;;;;;;5032340;28;20475;-58
2022/03/02 04:33:10;;;;;;;12.07;9.93;;;;;;;;;;5031990;28;20435;-58
2022/03/02 04:35:36;;;;;;;13.90;10.03;;;;;;;;;;5032017;28;20447;-58
2022/03/02 04:38:04;;;;;;;12.43;10.20;;;;;;;;;;5031798;28;20271;-58
2022/03/02 04:40:30;;;;;;;13.13;10.87;;;;;;;;;;5030711;28;20447;-58
2022/03/02 04:42:56;;;;;;;13.07;10.53;;;;;;;;;;5031842;28;20527;-58
2022/03/02 04:45:27;;;;;;;14.90;10.77;;;;;;;;;;5031686;28;20209;-59
2022/03/02 04:47:53;;;;;;;16.20;11.00;;;;;;;;;;5031964;28;21172;-58
2022/03/02 04:50:19;;;;;;;15.83;11.17;;;;;;;;;;5031770;28;20440;-58
2022/03/02 04:52:45;;;;;;;13.93;10.80;;;;;;;;;;5031949;28;20447;-59
2022/03/02 04:55:13;;;;;;;14.43;10.67;;;;;;;;;;5031715;28;20447;-59
2022/03/02 04:57:40;;;;;;;17.80;10.77;;;;;;;;;;5031752;28;20522;-59
2022/03/02 05:00:09;;;;;;;14.57;11.27;;;;;;;;;;5031575;28;20504;-59
2022/03/02 05:02:35;;;;;;;19.00;11.37;;;;;;;;;;5031688;28;20444;-59
2022/03/02 05:05:01;;;;;;;13.80;10.50;;;;;;;;;;5031805;28;20448;-59
2022/03/02 05:07:27;;;;;;;14.13;11.10;;;;;;;;;;5031685;28;20435;-59
2022/03/02 05:09:53;;;;;;;14.67;10.87;;;;;;;;;;5031564;28;20456;-59
2022/03/02 05:12:20;;;;;;;14.83;11.17;;;;;;;;;;5031370;28;20922;-59
2022/03/02 05:14:46;;;;;;;14.20;10.90;;;;;;;;;;5031679;28;20200;-59
2022/03/02 05:17:12;;;;;;;15.77;12.13;;;;;;;;;;5031460;28;20481;-59
2022/03/02 05:19:39;;;;;;;14.30;10.97;;;;;;;;;;5031562;28;20971;-59
2022/03/02 05:22:05;;;;;;;16.73;11.23;;;;;;;;;;5031491;28;20225;-59
2022/03/02 05:24:31;;;;;;;14.00;10.87;;;;;;;;;;5031590;28;20487;-59
2022/03/02 05:26:57;;;;;;;15.30;11.73;;;;;;;;;;5031256;28;20586;-59
2022/03/02 05:29:25;;;;;;;14.60;11.80;;;;;;;;;;5031240;28;20206;-59
2022/03/02 05:31:51;;;;;;;15.87;12.13;;;;;;;;;;5031328;28;20404;-59
2022/03/02 05:34:17;;;;;;;16.93;12.67;;;;;;;;;;5031253;28;20854;-59
2022/03/02 05:36:43;;;;;;;19.20;12.53;;;;;;;;;;5031336;28;20515;-59
2022/03/02 05:39:09;;;;;;;16.53;12.43;;;;;;;;;;5031355;28;20472;-60
2022/03/02 05:41:35;;;;;;;15.27;11.40;;;;;;;;;;5031390;28;20223;-59
2022/03/02 05:44:02;;;;;;;17.40;11.87;;;;;;;;;;5031398;28;20211;-59
2022/03/02 05:46:29;;;;;;;14.93;11.13;;;;;;;;;;5031382;28;20440;-59
2022/03/02 05:48:55;;;;;;;15.03;11.53;;;;;;;;;;5031123;28;20519;-59
2022/03/02 05:51:21;;;;;;;15.20;11.50;;;;;;;;;;5031244;28;20447;-59
2022/03/02 05:53:47;;;;;;;14.23;11.50;;;;;;;;;;5031175;28;20447;-59
2022/03/02 05:56:13;;;;;;;15.43;11.77;;;;;;;;;;5030885;28;20201;-59
2022/03/02 05:58:39;;;;;;;16.97;12.60;;;;;;;;;;5033988;28;20443;-59
2022/03/02 06:01:05;;;;;;;16.37;12.07;;;;;;;;;;5034898;28;20451;-57
2022/03/02 06:03:33;;;;;;;17.03;12.33;;;;;;;;;;5035136;28;20566;-57
2022/03/02 06:05:59;;;;;;;18.07;12.20;;;;;;;;;;5034811;28;20435;-57
2022/03/02 06:08:25;;;;;;;17.10;12.23;;;;;;;;;;5034549;28;20529;-57
2022/03/02 06:10:51;;;;;;;16.67;12.20;;;;;;;;;;5034545;28;20204;-57
2022/03/02 06:13:17;;;;;;;17.67;12.10;;;;;;;;;;5034336;28;20323;-57
2022/03/02 06:15:44;;;;;;;17.47;11.93;;;;;;;;;;5034592;28;20462;-57
2022/03/02 06:18:10;;;;;;;18.73;12.37;;;;;;;;;;5032696;28;20490;-57
2022/03/02 06:20:37;;;;;;;18.53;12.93;;;;;;;;;;5034131;28;20505;-57
2022/03/02 06:23:04;;;;;;;17.43;11.90;;;;;;;;;;5034050;28;21056;-57
2022/03/02 06:25:30;;;;;;;15.60;12.00;;;;;;;;;;5034160;28;20537;-57
2022/03/02 06:27:56;;;;;;;16.73;11.70;;;;;;;;;;5034362;28;20447;-57
2022/03/02 06:30:22;;;;;;;15.17;11.73;;;;;;;;;;5034213;28;20438;-58
2022/03/02 06:32:48;;;;;;;17.13;12.97;;;;;;;;;;5034237;28;20784;-58
2022/03/02 06:35:14;;;;;;;17.63;11.53;;;;;;;;;;5034294;28;20438;-58
2022/03/02 06:37:42;;;;;;;17.23;12.77;;;;;;;;;;5034049;28;20472;-57
2022/03/02 06:40:09;;;;;;;14.63;12.07;;;;;;;;;;5034131;28;20539;-58
2022/03/02 06:42:39;;;;;;;17.43;12.50;;;;;;;;;;5034223;28;20447;-58
2022/03/02 06:45:06;;;;;;;16.90;12.23;;;;;;;;;;5034070;28;20458;-58
2022/03/02 06:47:32;;;;;;;15.80;12.83;;;;;;;;;;5034243;28;20855;-60
2022/03/02 06:50:05;;;;;;;17.97;11.80;;;;;;;;;;5034386;28;20443;-58
2022/03/02 06:52:33;;;;;;;17.00;12.37;;;;;;;;;;5034223;28;20440;-61
2022/03/02 06:55:01;;;;;;;16.03;12.23;;;;;;;;;;5034104;28;20434;-60
2022/03/02 06:57:28;;;;;;;17.50;11.60;;;;;;;;;;5033842;28;20571;-55
2022/03/02 06:59:57;;;;;;;15.87;12.10;;;;;;;;;;5034011;28;20439;-58
2022/03/02 07:02:28;;;;;;;17.07;12.47;;;;;;;;;;5033806;28;20448;-58
2022/03/02 07:04:56;;;;;;;15.33;12.10;;;;;;;;;;5033731;28;20474;-59
2022/03/02 07:07:22;;;;;;;18.73;12.80;;;;;;;;;;5033503;28;20490;-58
2022/03/02 07:09:48;;;;;;;21.07;12.27;;;;;;;;;;5031247;28;20843;-58
2022/03/02 07:12:16;;;;;;;16.23;12.07;;;;;;;;;;5033132;28;20275;-58
2022/03/02 07:14:42;;;;;;;16.87;12.23;;;;;;;;;;5032978;28;20212;-58
2022/03/02 07:17:08;;;;;;;15.60;11.73;;;;;;;;;;5032938;28;20479;-58
2022/03/02 07:19:34;;;;;;;16.33;11.43;;;;;;;;;;5032921;28;20730;-58
2022/03/02 07:22:02;;;;;;;16.33;12.10;;;;;;;;;;5033117;28;20197;-58
2022/03/02 07:24:30;;;;;;;18.37;12.43;;;;;;;;;;5032879;28;20505;-58
2022/03/02 07:26:58;;;;;;;13.43;11.90;;;;;;;;;;5033508;28;20499;-58
2022/03/02 07:29:28;;;;;;;15.13;11.73;;;;;;;;;;5033088;28;20991;-58
2022/03/02 07:31:56;;;;;;;13.67;11.73;;;;;;;;;;5033282;28;20501;-58
2022/03/02 07:34:24;;;;;;;17.27;11.80;;;;;;;;;;5033252;28;20436;-59
2022/03/02 07:36:50;;;;;;;15.10;11.40;;;;;;;;;;5033290;28;20523;-58
2022/03/02 07:39:16;;;;;;;15.00;11.40;;;;;;;;;;5033118;28;20451;-58
2022/03/02 07:41:43;;;;;;;15.17;11.50;;;;;;;;;;5033180;28;20444;-58
2022/03/02 07:44:09;;;;;;;16.07;11.33;;;;;;;;;;5030914;28;20439;-58
2022/03/02 07:46:36;;;;;;;13.77;11.23;;;;;;;;;;5032795;28;20929;-58
2022/03/02 07:49:03;;;;;;;14.17;10.80;;;;;;;;;;5032783;28;20530;-58
2022/03/02 07:51:32;;;;;;;15.33;11.03;;;;;;;;;;5033013;28;20925;-58
2022/03/02 07:54:01;;;;;;;14.40;11.33;;;;;;;;;;5032590;28;20464;-58
2022/03/02 07:56:28;;;;;;;14.50;10.37;;;;;;;;;;5032831;28;20467;-58
2022/03/02 07:58:56;;;;;;;15.83;11.30;;;;;;;;;;5032633;28;20443;-58
2022/03/02 08:01:25;;;;;;;12.87;10.00;;;;;;;;;;5032699;28;21006;-58
2022/03/02 08:03:52;;;;;;;13.37;10.03;;;;;;;;;;5032819;28;20684;-59
2022/03/02 08:06:18;;;;;;;13.77;9.63;;;;;;;;;;5032341;28;20472;-59
2022/03/02 08:08:44;;;;;;;16.17;10.90;;;;;;;;;;5032839;28;20439;-58
2022/03/02 08:11:11;;;;;;;12.97;10.13;;;;;;;;;;5032308;28;20444;-59
2022/03/02 08:13:37;;;;;;;14.93;10.60;;;;;;;;;;5032232;28;20435;-59
2022/03/02 08:16:03;;;;;;;10.97;9.70;;;;;;;;;;5032185;28;20440;-59
2022/03/02 08:18:29;;;;;;;16.70;11.27;;;;;;;;;;5032590;28;20562;-58
2022/03/02 08:20:57;;;;;;;13.53;10.77;;;;;;;;;;5031510;28;20502;-63
2022/03/02 08:23:24;;;;;;;13.33;10.27;;;;;;;;;;5031981;28;20304;-59
2022/03/02 08:25:52;;;;;;;13.50;10.77;;;;;;;;;;5032004;28;20487;-58
2022/03/02 08:28:18;;;;;;;15.37;10.70;;;;;;;;;;5032063;28;20444;-59
2022/03/02 08:30:45;;;;;;;15.37;11.00;;;;;;;;;;5032217;28;20499;-58
2022/03/02 08:33:12;;;;;;;17.07;10.73;;;;;;;;;;5031897;28;20987;-58
2022/03/02 08:35:39;;;;;;;14.60;10.70;;;;;;;;;;5032071;28;20773;-59
2022/03/02 08:38:07;;;;;;;14.50;10.37;;;;;;;;;;5031958;28;20471;-59
2022/03/02 08:40:33;;;;;;;15.30;10.13;;;;;;;;;;5031915;28;20454;-58
2022/03/02 08:43:01;;;;;;;14.47;10.30;;;;;;;;;;5032111;28;20447;-58
2022/03/02 08:45:27;;;;;;;13.87;10.83;;;;;;;;;;5031901;28;20205;-59
2022/03/02 08:47:53;;;;;;;11.73;9.83;;;;;;;;;;5031970;28;20219;-59
2022/03/02 08:50:19;;;;;;;12.73;9.90;;;;;;;;;;5031764;28;20197;-59
2022/03/02 08:52:47;;;;;;;13.23;10.00;;;;;;;;;;5032034;28;20227;-58
2022/03/02 08:55:14;;;;;;;12.13;9.20;;;;;;;;;;5031821;28;20201;-59
2022/03/02 08:57:41;;;;;;;11.47;8.87;;;;;;;;;;5031645;28;20243;-59
2022/03/02 09:00:08;;;;;;;10.90;9.20;;;;;;;;;;5031604;28;20201;-59
2022/03/02 09:02:35;;;;;;;10.23;8.60;;;;;;;;;;5031600;28;20670;-59
2022/03/02 09:05:02;;;;;;;9.43;7.87;;;;;;;;;;5031773;28;20208;-59
2022/03/02 09:07:29;;;;;;;9.83;7.20;;;;;;;;;;5031742;28;20588;-57
2022/03/02 09:09:55;;;;;;;13.20;7.87;;;;;;;;;;5031569;28;20204;-59
2022/03/02 09:12:22;;;;;;;9.53;7.67;;;;;;;;;;5031375;28;20263;-58
2022/03/02 09:14:49;;;;;;;11.87;7.77;;;;;;;;;;5031559;28;20205;-59
2022/03/02 09:17:17;;;;;;;9.77;7.77;;;;;;;;;;5031438;28;20228;-58
2022/03/02 09:19:43;;;;;;;9.57;7.60;;;;;;;;;;5031485;28;20280;-58
2022/03/02 09:22:09;;;;;;;7.00;6.13;;;;;;;;;;5031332;28;20296;-58
2022/03/02 09:24:38;;;;;;;9.87;7.60;;;;;;;;;;5031214;28;20303;-59
2022/03/02 09:27:07;;;;;;;9.87;7.30;;;;;;;;;;5031257;28;20236;-58
2022/03/02 09:29:34;;;;;;;8.60;7.47;;;;;;;;;;5031567;28;20197;-58
2022/03/02 09:32:03;;;;;;;9.67;7.00;;;;;;;;;;5033527;28;20208;-58
2022/03/02 09:34:29;;;;;;;9.37;7.83;;;;;;;;;;5035351;28;20651;-60
2022/03/02 09:36:56;;;;;;;9.83;7.33;;;;;;;;;;5035351;28;20308;-59
2022/03/02 09:39:23;;;;;;;8.47;7.57;;;;;;;;;;5035107;28;20193;-57
2022/03/02 09:41:51;;;;;;;10.37;7.33;;;;;;;;;;5035360;28;20211;-59
2022/03/02 09:44:19;;;;;;;8.90;7.30;;;;;;;;;;5035254;28;20198;-58
2022/03/02 09:46:49;;;;;;;9.90;7.80;;;;;;;;;;5035260;28;20624;-58
2022/03/02 09:49:19;;;;;;;10.07;7.77;;;;;;;;;;5035164;28;20667;-58
2022/03/02 09:51:50;;;;;;;10.37;8.00;;;;;;;;;;5035382;28;20658;-59
2022/03/02 09:54:19;;;;;;;9.27;7.67;;;;;;;;;;5035142;28;20201;-60
2022/03/02 09:56:47;;;;;;;10.33;7.07;;;;;;;;;;5034958;28;20221;-60
2022/03/02 09:59:13;;;;;;;10.67;8.37;;;;;;;;;;5035030;28;20193;-58
2022/03/02 10:01:41;;;;;;;10.80;7.97;;;;;;;;;;5034949;28;20646;-58
2022/03/02 10:04:13;;;;;;;8.07;7.27;;;;;;;;;;5034833;28;20263;-58
2022/03/02 10:06:42;;;;;;;10.77;8.00;;;;;;;;;;5035021;28;20663;-59
2022/03/02 10:09:08;;;;;;;10.60;8.07;;;;;;;;;;5034794;28;20208;-58
2022/03/02 10:11:34;;;;;;;9.63;7.83;;;;;;;;;;5034932;28;20201;-58
2022/03/02 10:14:01;;;;;;;9.70;7.80;;;;;;;;;;5034821;28;20739;-60
2022/03/02 10:16:27;;;;;;;12.33;8.20;;;;;;;;;;5034717;28;20206;-59
2022/03/02 10:18:56;;;;;;;9.17;7.90;;;;;;;;;;5034722;28;20203;-59
2022/03/02 10:21:27;;;;;;;9.03;8.13;;;;;;;;;;5034647;28;20554;-58
2022/03/02 10:23:56;;;;;;;10.93;7.87;;;;;;;;;;5034536;28;20237;-59
2022/03/02 10:26:24;;;;;;;10.13;8.10;;;;;;;;;;5034161;28;20343;-60
2022/03/02 10:28:53;;;;;;;8.87;7.73;;;;;;;;;;5034522;28;20197;-59
2022/03/02 10:31:27;;;;;;;10.57;8.50;;;;;;;;;;5034296;28;20227;-59
2022/03/02 10:33:54;;;;;;;10.73;8.00;;;;;;;;;;5034558;28;20273;-59
2022/03/02 10:36:25;;;;;;;8.80;7.90;;;;;;;;;;5034273;28;20563;-59
2022/03/02 10:39:02;;;;;;;9.87;8.30;;;;;;;;;;5034382;28;20220;-58
2022/03/02 10:41:29;;;;;;;9.67;8.23;;;;;;;;;;5034256;28;20576;-57
2022/03/02 10:43:57;;;;;;;10.90;8.60;;;;;;;;;;5033447;28;20258;-59
2022/03/02 10:46:24;;;;;;;11.43;8.17;;;;;;;;;;5034141;28;20236;-60
2022/03/02 10:48:57;;;;;;;12.13;9.07;;;;;;;;;;5034165;28;20198;-59
2022/03/02 10:51:25;;;;;;;11.53;8.70;;;;;;;;;;5034066;28;20229;-59
2022/03/02 10:53:53;;;;;;;10.20;8.03;;;;;;;;;;5033691;28;20870;-59
2022/03/02 10:56:21;;;;;;;10.73;9.03;;;;;;;;;;5033799;28;20211;-58
2022/03/02 10:58:49;;;;;;;9.73;8.00;;;;;;;;;;5033949;28;20663;-59
2022/03/02 11:01:16;;;;;;;10.30;8.53;;;;;;;;;;5034011;28;20197;-58
2022/03/02 11:03:42;;;;;;;10.83;8.40;;;;;;;;;;5033993;28;20204;-58
2022/03/02 11:06:08;;;;;;;13.70;9.43;;;;;;;;;;5033817;28;20399;-59
2022/03/02 11:08:35;;;;;;;9.53;8.53;;;;;;;;;;5033896;28;20221;-58
2022/03/02 11:11:01;;;;;;;10.47;9.07;;;;;;;;;;5033774;28;20240;-59
2022/03/02 11:13:29;;;;;;;10.70;9.13;;;;;;;;;;5033518;28;20205;-59
2022/03/02 11:15:55;;;;;;;11.80;9.43;;;;;;;;;;5033761;28;20205;-58
2022/03/02 11:18:32;;;;;;;10.07;9.03;;;;;;;;;;5033369;28;20540;-58
2022/03/02 11:21:00;;;;;;;17.90;9.67;;;;;;;;;;5033557;28;20192;-58
2022/03/02 11:23:26;;;;;;;11.13;9.73;;;;;;;;;;5033438;28;20222;-58
2022/03/02 11:25:53;;;;;;;10.47;9.37;;;;;;;;;;5033189;28;20907;-59
2022/03/02 11:28:20;;;;;;;10.57;8.70;;;;;;;;;;5033329;28;20287;-59
2022/03/02 11:30:49;;;;;;;9.97;8.87;;;;;;;;;;5033472;28;20204;-59
2022/03/02 11:33:15;;;;;;;12.37;10.30;;;;;;;;;;5033180;28;20652;-59
2022/03/02 11:35:42;;;;;;;12.10;9.33;;;;;;;;;;5033448;28;20220;-59
2022/03/02 11:38:12;;;;;;;11.30;9.33;;;;;;;;;;5033183;28;20227;-58
2022/03/02 11:40:39;;;;;;;12.57;9.83;;;;;;;;;;5033297;28;20886;-59
2022/03/02 11:43:12;;;;;;;9.73;8.73;;;;;;;;;;5033002;28;20607;-58
2022/03/02 11:45:38;;;;;;;11.50;9.50;;;;;;;;;;5033199;28;20197;-60
2022/03/02 11:48:10;;;;;;;11.30;10.10;;;;;;;;;;5032969;28;20272;-58
2022/03/02 11:50:36;;;;;;;11.67;9.63;;;;;;;;;;5032939;28;20638;-57
2022/03/02 11:53:08;;;;;;;11.00;9.43;;;;;;;;;;5032854;28;20277;-58
2022/03/02 11:55:34;;;;;;;10.17;9.10;;;;;;;;;;5031728;28;20201;-58
2022/03/02 11:58:01;;;;;;;10.63;9.23;;;;;;;;;;5032880;28;20289;-58
2022/03/02 12:00:27;;;;;;;10.70;9.10;;;;;;;;;;5031084;28;20203;-59
2022/03/02 12:02:56;;;;;;;12.30;9.43;;;;;;;;;;5032751;28;20231;-58
2022/03/02 12:05:27;;;;;;;10.67;9.13;;;;;;;;;;5032721;28;20277;-59
2022/03/02 12:08:03;;;;;;;12.57;8.87;;;;;;;;;;5032830;28;20252;-59
2022/03/02 12:10:31;;;;;;;11.03;8.53;;;;;;;;;;5032547;28;20209;-59
2022/03/02 12:12:58;;;;;;;13.47;9.37;;;;;;;;;;5032598;28;20206;-58
2022/03/02 12:15:40;;;;;;;10.90;9.07;;;;;;;;;;5032362;28;20203;-58
2022/03/02 12:18:07;;;;;;;10.63;9.47;;;;;;;;;;5032345;28;20273;-60
2022/03/02 12:20:43;;;;;;;9.40;7.33;;;;;;;;;;5032361;28;20262;-59
2022/03/02 12:23:09;;;;;;;9.90;8.13;;;;;;;;;;5032220;28;20231;-59
2022/03/02 12:25:37;;;;;;;10.53;9.50;;;;;;;;;;5031394;28;20231;-61
2022/03/02 12:28:05;;;;;;;10.70;8.70;;;;;;;;;;5031906;28;20670;-59
2022/03/02 12:30:32;;;;;;;10.20;9.13;;;;;;;;;;5032194;28;20192;-58
2022/03/02 12:32:58;;;;;;;10.60;9.10;;;;;;;;;;5032241;28;20203;-59
2022/03/02 12:35:25;;;;;;;10.40;8.60;;;;;;;;;;5032008;28;20563;-60
2022/03/02 12:37:53;;;;;;;10.90;9.40;;;;;;;;;;5031863;28;20229;-60
2022/03/02 12:40:20;;;;;;;10.07;8.60;;;;;;;;;;5012705;28;20351;-59
2022/03/02 12:42:51;;;;;;;15.00;9.13;;;;;;;;;;5012133;28;20725;-58
2022/03/02 12:45:18;;;;;;;9.70;8.50;;;;;;;;;;5011721;28;20254;-59
2022/03/02 12:47:44;;;;;;;10.53;9.43;;;;;;;;;;5012217;28;20279;-57
2022/03/02 12:50:12;;;;;;;10.10;8.93;;;;;;;;;;5011632;28;20655;-59
2022/03/02 12:52:39;;;;;;;10.80;9.70;;;;;;;;;;5012213;28;20200;-59
2022/03/02 12:55:07;;;;;;;11.47;8.97;;;;;;;;;;5011925;28;20207;-59
2022/03/02 12:57:37;;;;;;;9.03;8.07;;;;;;;;;;5011909;28;20230;-59
2022/03/02 13:00:04;;;;;;;9.50;7.90;;;;;;;;;;5011466;28;20628;-59
2022/03/02 13:02:32;;;;;;;9.83;7.70;;;;;;;;;;5011495;28;20203;-58
2022/03/02 13:05:02;;;;;;;10.33;7.70;;;;;;;;;;5011747;28;20625;-59
2022/03/02 13:07:32;;;;;;;9.60;7.67;;;;;;;;;;5011176;28;20289;-59
2022/03/02 13:10:01;;;;;;;9.53;7.40;;;;;;;;;;5011776;28;20230;-59
2022/03/02 13:12:30;;;;;;;10.10;7.87;;;;;;;;;;5011342;28;20612;-58
2022/03/02 13:14:57;;;;;;;9.53;7.43;;;;;;;;;;5011281;28;20203;-59
2022/03/02 13:17:24;;;;;;;9.67;7.63;;;;;;;;;;5011024;28;20308;-59
2022/03/02 13:19:51;;;;;;;9.33;7.97;;;;;;;;;;5010933;28;20203;-59
2022/03/02 13:22:24;;;;;;;8.27;6.93;;;;;;;;;;5010982;28;20193;-59
2022/03/02 13:24:52;;;;;;;7.23;6.53;;;;;;;;;;5010829;28;20567;-58
2022/03/02 13:27:18;;;;;;;7.60;6.80;;;;;;;;;;5010999;28;20612;-59
2022/03/02 13:30:03;;;;;;;7.70;6.80;;;;;;;;;;5011316;28;20205;-59
2022/03/02 13:32:52;;;;;;;7.27;6.33;;;;;;;;;;5011163;28;20248;-59
2022/03/02 13:35:18;;;;;;;7.97;6.47;;;;;;;;;;5010953;28;20198;-58
2022/03/02 13:37:54;;;;;;;7.37;6.10;;;;;;;;;;5011191;28;20222;-58
2022/03/02 13:40:39;;;;;;;7.47;6.53;;;;;;;;;;5010891;28;20193;-58
2022/03/02 13:43:24;;;;;;;10.30;6.20;;;;;;;;;;5010834;28;20205;-59
2022/03/02 13:46:14;;;;;;;7.40;6.50;;;;;;;;;;5011043;28;20178;-58
2022/03/02 13:48:46;;;;;;;8.03;7.00;;;;;;;;;;5010967;28;20291;-59
2022/03/02 13:51:12;;;;;;;7.47;6.77;;;;;;;;;;5011149;28;20197;-57
2022/03/02 13:53:39;;;;;;;7.67;6.30;;;;;;;;;;5011104;28;20224;-59
2022/03/02 13:56:06;;;;;;;7.70;6.50;;;;;;;;;;5010964;28;20264;-59
2022/03/02 13:58:33;;;;;;;9.83;6.83;;;;;;;;;;5010938;28;20276;-58
2022/03/02 14:01:22;;;;;;;8.43;6.87;;;;;;;;;;5010878;28;20549;-59
2022/03/02 14:03:50;;;;;;;8.33;7.00;;;;;;;;;;5011522;28;20637;-58
2022/03/02 14:06:17;;;;;;;7.63;6.83;;;;;;;;;;5011333;28;20603;-59
2022/03/02 14:08:47;;;;;;;11.33;6.70;;;;;;;;;;5011300;28;20788;-59
2022/03/02 14:11:28;;;;;;;7.93;6.77;;;;;;;;;;5011432;28;20194;-59
2022/03/02 14:13:54;;;;;;;7.20;6.37;;;;;;;;;;5009631;28;20233;-59
2022/03/02 14:16:22;;;;;;;7.10;6.10;;;;;;;;;;5010783;28;20197;-59
2022/03/02 14:18:52;;;;;;;8.43;7.23;;;;;;;;;;5012444;28;20256;-60
2022/03/02 14:21:18;;;;;;;7.60;6.87;;;;;;;;;;5014578;28;20560;-59
2022/03/02 14:23:45;;;;;;;8.77;7.07;;;;;;;;;;5014683;28;20757;-58
2022/03/02 14:26:11;;;;;;;13.07;6.70;;;;;;;;;;5014481;28;20295;-60